sensor_id;sensor_type;location;lat;lon;timestamp;temperature;humidity
12602;DHT22;30282;16.436;99.370;2023-03-01T00:02:09;17.70;99.90
12602;DHT22;30282;16.436;99.370;2023-03-01T00:04:43;17.80;99.90
12602;DHT22;30282;16.436;99.370;2023-03-01T00:07:13;17.80;99.90
12602;DHT22;30282;16.436;99.370;2023-03-01T00:09:42;17.80;99.90
12602;DHT22;30282;16.436;99.370;2023-03-01T00:12:12;17.80;99.90
12602;DHT22;30282;16.436;99.370;2023-03-01T00:14:41;17.80;99.90
12602;DHT22;30282;16.436;99.370;2023-03-01T00:17:22;17.80;99.90
12602;DHT22;30282;16.436;99.370;2023-03-01T00:19:59;17.90;99.90
12602;DHT22;30282;16.436;99.370;2023-03-01T00:22:28;17.90;99.90
12602;DHT22;30282;16.436;99.370;2023-03-01T00:24:57;17.90;99.90
12602;DHT22;30282;16.436;99.370;2023-03-01T00:27:27;18.00;99.90
12602;DHT22;30282;16.436;99.370;2023-03-01T00:29:56;18.00;99.90
12602;DHT22;30282;16.436;99.370;2023-03-01T00:32:27;18.20;99.90
12602;DHT22;30282;16.436;99.370;2023-03-01T00:34:56;18.20;99.90
12602;DHT22;30282;16.436;99.370;2023-03-01T00:37:29;18.30;99.90
12602;DHT22;30282;16.436;99.370;2023-03-01T00:39:58;18.30;99.90
12602;DHT22;30282;16.436;99.370;2023-03-01T00:42:27;18.40;99.90
12602;DHT22;30282;16.436;99.370;2023-03-01T00:44:59;18.30;99.90
12602;DHT22;30282;16.436;99.370;2023-03-01T00:47:31;18.50;99.90
12602;DHT22;30282;16.436;99.370;2023-03-01T00:50:00;18.50;99.90
12602;DHT22;30282;16.436;99.370;2023-03-01T00:52:29;18.60;99.90
12602;DHT22;30282;16.436;99.370;2023-03-01T00:54:58;18.70;99.90
12602;DHT22;30282;16.436;99.370;2023-03-01T00:57:27;18.80;99.90
12602;DHT22;30282;16.436;99.370;2023-03-01T00:59:56;18.90;99.90
12602;DHT22;30282;16.436;99.370;2023-03-01T01:02:26;19.00;99.90
12602;DHT22;30282;16.436;99.370;2023-03-01T01:04:56;19.10;99.90
12602;DHT22;30282;16.436;99.370;2023-03-01T01:07:25;19.20;99.90
12602;DHT22;30282;16.436;99.370;2023-03-01T01:09:55;19.30;99.90
12602;DHT22;30282;16.436;99.370;2023-03-01T01:12:24;19.40;99.90
12602;DHT22;30282;16.436;99.370;2023-03-01T01:14:53;19.60;99.90
12602;DHT22;30282;16.436;99.370;2023-03-01T01:17:22;19.70;99.90
12602;DHT22;30282;16.436;99.370;2023-03-01T01:19:51;19.80;99.90
12602;DHT22;30282;16.436;99.370;2023-03-01T01:22:22;19.90;99.90
12602;DHT22;30282;16.436;99.370;2023-03-01T01:24:51;20.10;99.90
12602;DHT22;30282;16.436;99.370;2023-03-01T01:27:20;20.20;99.90
12602;DHT22;30282;16.436;99.370;2023-03-01T01:29:49;20.30;99.90
12602;DHT22;30282;16.436;99.370;2023-03-01T01:32:17;20.50;99.90
12602;DHT22;30282;16.436;99.370;2023-03-01T01:34:46;20.60;99.90
12602;DHT22;30282;16.436;99.370;2023-03-01T01:37:15;20.80;99.90
12602;DHT22;30282;16.436;99.370;2023-03-01T01:39:46;20.90;99.90
12602;DHT22;30282;16.436;99.370;2023-03-01T01:42:16;21.10;99.90
12602;DHT22;30282;16.436;99.370;2023-03-01T01:44:46;21.30;99.90
12602;DHT22;30282;16.436;99.370;2023-03-01T01:47:17;21.50;99.90
12602;DHT22;30282;16.436;99.370;2023-03-01T01:49:48;21.60;99.90
12602;DHT22;30282;16.436;99.370;2023-03-01T01:52:23;21.80;99.90
12602;DHT22;30282;16.436;99.370;2023-03-01T01:54:59;22.00;99.90
12602;DHT22;30282;16.436;99.370;2023-03-01T01:57:34;22.20;99.90
12602;DHT22;30282;16.436;99.370;2023-03-01T02:00:07;22.40;99.90
12602;DHT22;30282;16.436;99.370;2023-03-01T02:02:37;22.50;99.90
12602;DHT22;30282;16.436;99.370;2023-03-01T02:05:11;22.70;99.90
12602;DHT22;30282;16.436;99.370;2023-03-01T02:07:43;22.80;99.90
12602;DHT22;30282;16.436;99.370;2023-03-01T02:10:15;22.90;99.90
12602;DHT22;30282;16.436;99.370;2023-03-01T02:12:44;23.00;99.90
12602;DHT22;30282;16.436;99.370;2023-03-01T02:15:14;23.10;99.90
12602;DHT22;30282;16.436;99.370;2023-03-01T02:17:42;23.30;99.90
12602;DHT22;30282;16.436;99.370;2023-03-01T02:20:16;23.40;99.90
12602;DHT22;30282;16.436;99.370;2023-03-01T02:22:49;23.50;99.90
12602;DHT22;30282;16.436;99.370;2023-03-01T02:25:27;23.70;99.90
12602;DHT22;30282;16.436;99.370;2023-03-01T02:28:02;23.80;99.90
12602;DHT22;30282;16.436;99.370;2023-03-01T02:30:36;23.90;99.90
12602;DHT22;30282;16.436;99.370;2023-03-01T02:33:26;24.10;99.90
12602;DHT22;30282;16.436;99.370;2023-03-01T02:35:55;24.20;99.90
12602;DHT22;30282;16.436;99.370;2023-03-01T02:38:25;24.40;99.90
12602;DHT22;30282;16.436;99.370;2023-03-01T02:40:55;24.50;99.90
12602;DHT22;30282;16.436;99.370;2023-03-01T02:43:30;24.70;99.90
12602;DHT22;30282;16.436;99.370;2023-03-01T02:46:06;24.80;99.90
12602;DHT22;30282;16.436;99.370;2023-03-01T02:48:43;24.90;99.90
12602;DHT22;30282;16.436;99.370;2023-03-01T02:51:23;25.00;99.90
12602;DHT22;30282;16.436;99.370;2023-03-01T02:54:03;25.20;99.90
12602;DHT22;30282;16.436;99.370;2023-03-01T02:56:36;25.30;99.90
12602;DHT22;30282;16.436;99.370;2023-03-01T02:59:05;25.50;99.90
12602;DHT22;30282;16.436;99.370;2023-03-01T03:01:36;25.70;99.90
12602;DHT22;30282;16.436;99.370;2023-03-01T03:04:05;26.00;99.90
12602;DHT22;30282;16.436;99.370;2023-03-01T03:06:34;26.00;99.90
12602;DHT22;30282;16.436;99.370;2023-03-01T03:09:04;26.20;99.90
12602;DHT22;30282;16.436;99.370;2023-03-01T03:11:34;26.40;99.90
12602;DHT22;30282;16.436;99.370;2023-03-01T03:14:03;26.70;99.90
12602;DHT22;30282;16.436;99.370;2023-03-01T03:16:34;26.80;99.90
12602;DHT22;30282;16.436;99.370;2023-03-01T03:19:08;27.00;99.90
12602;DHT22;30282;16.436;99.370;2023-03-01T03:21:40;27.10;99.90
12602;DHT22;30282;16.436;99.370;2023-03-01T03:24:09;27.20;99.90
12602;DHT22;30282;16.436;99.370;2023-03-01T03:26:39;27.30;99.90
12602;DHT22;30282;16.436;99.370;2023-03-01T03:29:17;27.50;99.90
12602;DHT22;30282;16.436;99.370;2023-03-01T03:31:53;27.60;99.90
12602;DHT22;30282;16.436;99.370;2023-03-01T03:34:22;27.80;99.90
12602;DHT22;30282;16.436;99.370;2023-03-01T03:36:54;28.00;99.90
12602;DHT22;30282;16.436;99.370;2023-03-01T03:39:26;28.20;99.90
12602;DHT22;30282;16.436;99.370;2023-03-01T03:41:55;28.30;99.90
12602;DHT22;30282;16.436;99.370;2023-03-01T03:44:24;28.40;99.90
12602;DHT22;30282;16.436;99.370;2023-03-01T03:46:55;28.60;99.90
12602;DHT22;30282;16.436;99.370;2023-03-01T03:49:24;28.70;99.90
12602;DHT22;30282;16.436;99.370;2023-03-01T03:52:03;28.80;99.90
12602;DHT22;30282;16.436;99.370;2023-03-01T03:54:40;28.90;99.90
12602;DHT22;30282;16.436;99.370;2023-03-01T03:57:09;29.00;99.90
12602;DHT22;30282;16.436;99.370;2023-03-01T03:59:38;29.20;99.90
12602;DHT22;30282;16.436;99.370;2023-03-01T04:02:08;29.30;99.90
12602;DHT22;30282;16.436;99.370;2023-03-01T04:04:37;29.40;99.90
12602;DHT22;30282;16.436;99.370;2023-03-01T04:07:06;29.70;99.90
12602;DHT22;30282;16.436;99.370;2023-03-01T04:09:35;29.90;99.90
12602;DHT22;30282;16.436;99.370;2023-03-01T04:12:04;30.00;99.90
12602;DHT22;30282;16.436;99.370;2023-03-01T04:14:33;30.10;99.90
12602;DHT22;30282;16.436;99.370;2023-03-01T04:17:02;30.30;99.90
12602;DHT22;30282;16.436;99.370;2023-03-01T04:19:33;30.40;99.90
12602;DHT22;30282;16.436;99.370;2023-03-01T04:22:02;30.50;99.90
12602;DHT22;30282;16.436;99.370;2023-03-01T04:24:36;30.50;99.90
12602;DHT22;30282;16.436;99.370;2023-03-01T04:27:04;30.60;99.90
12602;DHT22;30282;16.436;99.370;2023-03-01T04:29:33;30.70;99.90
12602;DHT22;30282;16.436;99.370;2023-03-01T04:32:02;30.90;99.90
12602;DHT22;30282;16.436;99.370;2023-03-01T04:34:33;31.10;99.90
12602;DHT22;30282;16.436;99.370;2023-03-01T04:37:05;31.20;99.90
12602;DHT22;30282;16.436;99.370;2023-03-01T04:39:42;31.20;99.90
12602;DHT22;30282;16.436;99.370;2023-03-01T04:42:12;31.30;99.90
12602;DHT22;30282;16.436;99.370;2023-03-01T04:44:41;31.40;99.90
12602;DHT22;30282;16.436;99.370;2023-03-01T04:47:10;31.50;99.90
12602;DHT22;30282;16.436;99.370;2023-03-01T04:49:40;31.60;99.90
12602;DHT22;30282;16.436;99.370;2023-03-01T04:52:09;31.70;99.90
12602;DHT22;30282;16.436;99.370;2023-03-01T04:54:38;31.90;99.90
12602;DHT22;30282;16.436;99.370;2023-03-01T04:57:07;31.90;99.90
12602;DHT22;30282;16.436;99.370;2023-03-01T04:59:36;32.00;99.90
12602;DHT22;30282;16.436;99.370;2023-03-01T05:02:05;32.00;99.90
12602;DHT22;30282;16.436;99.370;2023-03-01T05:04:34;32.10;99.90
12602;DHT22;30282;16.436;99.370;2023-03-01T05:07:04;32.30;99.90
12602;DHT22;30282;16.436;99.370;2023-03-01T05:09:33;32.50;99.90
12602;DHT22;30282;16.436;99.370;2023-03-01T05:12:02;32.50;99.90
12602;DHT22;30282;16.436;99.370;2023-03-01T05:14:31;32.60;99.80
12602;DHT22;30282;16.436;99.370;2023-03-01T05:17:00;32.50;99.00
12602;DHT22;30282;16.436;99.370;2023-03-01T05:19:31;32.50;99.00
12602;DHT22;30282;16.436;99.370;2023-03-01T05:22:00;32.60;99.50
12602;DHT22;30282;16.436;99.370;2023-03-01T05:24:34;32.70;98.60
12602;DHT22;30282;16.436;99.370;2023-03-01T05:27:05;32.70;99.50
12602;DHT22;30282;16.436;99.370;2023-03-01T05:29:34;32.90;98.60
12602;DHT22;30282;16.436;99.370;2023-03-01T05:32:04;32.90;98.30
12602;DHT22;30282;16.436;99.370;2023-03-01T05:34:35;33.00;98.90
12602;DHT22;30282;16.436;99.370;2023-03-01T05:37:04;33.30;99.10
12602;DHT22;30282;16.436;99.370;2023-03-01T05:39:36;33.50;98.90
12602;DHT22;30282;16.436;99.370;2023-03-01T05:42:05;33.60;99.00
12602;DHT22;30282;16.436;99.370;2023-03-01T05:44:35;33.70;98.10
12602;DHT22;30282;16.436;99.370;2023-03-01T05:47:04;33.70;98.60
12602;DHT22;30282;16.436;99.370;2023-03-01T05:49:33;33.60;97.50
12602;DHT22;30282;16.436;99.370;2023-03-01T05:52:02;33.70;96.70
12602;DHT22;30282;16.436;99.370;2023-03-01T05:54:30;33.80;97.60
12602;DHT22;30282;16.436;99.370;2023-03-01T05:57:04;34.00;97.20
12602;DHT22;30282;16.436;99.370;2023-03-01T05:59:33;34.10;97.00
12602;DHT22;30282;16.436;99.370;2023-03-01T06:02:01;34.20;95.60
12602;DHT22;30282;16.436;99.370;2023-03-01T06:04:33;34.40;95.50
12602;DHT22;30282;16.436;99.370;2023-03-01T06:07:13;34.50;95.90
12602;DHT22;30282;16.436;99.370;2023-03-01T06:09:45;34.50;96.40
12602;DHT22;30282;16.436;99.370;2023-03-01T06:12:24;34.50;96.80
12602;DHT22;30282;16.436;99.370;2023-03-01T06:14:53;34.60;95.70
12602;DHT22;30282;16.436;99.370;2023-03-01T06:17:24;34.70;94.70
12602;DHT22;30282;16.436;99.370;2023-03-01T06:19:56;34.70;95.00
12602;DHT22;30282;16.436;99.370;2023-03-01T06:22:26;34.70;94.30
12602;DHT22;30282;16.436;99.370;2023-03-01T06:24:55;34.60;94.40
12602;DHT22;30282;16.436;99.370;2023-03-01T06:27:26;34.50;94.40
12602;DHT22;30282;16.436;99.370;2023-03-01T06:29:55;34.50;94.50
12602;DHT22;30282;16.436;99.370;2023-03-01T06:32:23;34.70;93.50
12602;DHT22;30282;16.436;99.370;2023-03-01T06:34:52;34.60;93.70
12602;DHT22;30282;16.436;99.370;2023-03-01T06:37:21;34.60;93.90
12602;DHT22;30282;16.436;99.370;2023-03-01T06:39:50;34.70;93.50
12602;DHT22;30282;16.436;99.370;2023-03-01T06:42:19;34.70;93.60
12602;DHT22;30282;16.436;99.370;2023-03-01T06:44:50;34.80;93.40
12602;DHT22;30282;16.436;99.370;2023-03-01T06:47:19;34.90;92.90
12602;DHT22;30282;16.436;99.370;2023-03-01T06:49:47;34.90;92.40
12602;DHT22;30282;16.436;99.370;2023-03-01T06:52:16;34.70;92.30
12602;DHT22;30282;16.436;99.370;2023-03-01T06:54:45;34.70;92.60
12602;DHT22;30282;16.436;99.370;2023-03-01T06:57:14;34.70;92.60
12602;DHT22;30282;16.436;99.370;2023-03-01T06:59:43;34.70;92.20
12602;DHT22;30282;16.436;99.370;2023-03-01T07:02:14;34.70;92.50
12602;DHT22;30282;16.436;99.370;2023-03-01T07:04:43;34.70;92.10
12602;DHT22;30282;16.436;99.370;2023-03-01T07:07:12;34.50;92.00
12602;DHT22;30282;16.436;99.370;2023-03-01T07:09:41;34.60;92.10
12602;DHT22;30282;16.436;99.370;2023-03-01T07:12:10;34.50;91.20
12602;DHT22;30282;16.436;99.370;2023-03-01T07:14:39;34.50;91.10
12602;DHT22;30282;16.436;99.370;2023-03-01T07:17:08;34.40;91.40
12602;DHT22;30282;16.436;99.370;2023-03-01T07:19:39;34.50;91.30
12602;DHT22;30282;16.436;99.370;2023-03-01T07:22:08;34.60;88.90
12602;DHT22;30282;16.436;99.370;2023-03-01T07:24:37;34.70;88.40
12602;DHT22;30282;16.436;99.370;2023-03-01T07:27:06;34.80;85.90
12602;DHT22;30282;16.436;99.370;2023-03-01T07:29:35;34.80;88.20
12602;DHT22;30282;16.436;99.370;2023-03-01T07:32:05;34.80;90.10
12602;DHT22;30282;16.436;99.370;2023-03-01T07:34:35;34.80;87.80
12602;DHT22;30282;16.436;99.370;2023-03-01T07:37:05;34.80;89.40
12602;DHT22;30282;16.436;99.370;2023-03-01T07:39:34;34.80;90.20
12602;DHT22;30282;16.436;99.370;2023-03-01T07:42:04;34.80;87.40
12602;DHT22;30282;16.436;99.370;2023-03-01T07:44:33;34.80;88.80
12602;DHT22;30282;16.436;99.370;2023-03-01T07:47:02;34.90;88.50
12602;DHT22;30282;16.436;99.370;2023-03-01T07:49:31;34.90;88.50
12602;DHT22;30282;16.436;99.370;2023-03-01T07:52:01;34.70;87.80
12602;DHT22;30282;16.436;99.370;2023-03-01T07:54:31;34.70;87.70
12602;DHT22;30282;16.436;99.370;2023-03-01T07:57:00;34.80;87.90
12602;DHT22;30282;16.436;99.370;2023-03-01T07:59:30;34.70;85.30
12602;DHT22;30282;16.436;99.370;2023-03-01T08:01:59;34.80;87.40
12602;DHT22;30282;16.436;99.370;2023-03-01T08:04:28;34.90;86.30
12602;DHT22;30282;16.436;99.370;2023-03-01T08:06:57;35.00;86.50
12602;DHT22;30282;16.436;99.370;2023-03-01T08:09:26;35.00;86.40
12602;DHT22;30282;16.436;99.370;2023-03-01T08:11:57;34.90;88.60
12602;DHT22;30282;16.436;99.370;2023-03-01T08:14:27;34.90;86.80
12602;DHT22;30282;16.436;99.370;2023-03-01T08:16:57;34.90;86.00
12602;DHT22;30282;16.436;99.370;2023-03-01T08:19:26;34.90;85.70
12602;DHT22;30282;16.436;99.370;2023-03-01T08:21:55;35.00;87.10
12602;DHT22;30282;16.436;99.370;2023-03-01T08:24:25;35.10;86.30
12602;DHT22;30282;16.436;99.370;2023-03-01T08:26:54;35.10;85.10
12602;DHT22;30282;16.436;99.370;2023-03-01T08:29:25;35.10;86.50
12602;DHT22;30282;16.436;99.370;2023-03-01T08:31:54;35.10;87.30
12602;DHT22;30282;16.436;99.370;2023-03-01T08:34:23;35.10;84.10
12602;DHT22;30282;16.436;99.370;2023-03-01T08:36:52;35.10;87.30
12602;DHT22;30282;16.436;99.370;2023-03-01T08:39:22;35.20;86.20
12602;DHT22;30282;16.436;99.370;2023-03-01T08:41:51;35.20;83.60
12602;DHT22;30282;16.436;99.370;2023-03-01T08:44:20;35.10;81.40
12602;DHT22;30282;16.436;99.370;2023-03-01T08:46:51;35.00;82.10
12602;DHT22;30282;16.436;99.370;2023-03-01T08:49:22;35.00;83.60
12602;DHT22;30282;16.436;99.370;2023-03-01T08:51:51;35.10;84.20
12602;DHT22;30282;16.436;99.370;2023-03-01T08:54:21;35.10;81.70
12602;DHT22;30282;16.436;99.370;2023-03-01T08:56:51;35.10;81.80
12602;DHT22;30282;16.436;99.370;2023-03-01T08:59:20;35.10;82.10
12602;DHT22;30282;16.436;99.370;2023-03-01T09:01:51;35.10;82.90
12602;DHT22;30282;16.436;99.370;2023-03-01T09:04:20;35.10;83.30
12602;DHT22;30282;16.436;99.370;2023-03-01T09:06:49;35.00;83.00
12602;DHT22;30282;16.436;99.370;2023-03-01T09:09:18;35.00;81.10
12602;DHT22;30282;16.436;99.370;2023-03-01T09:11:48;35.00;80.10
12602;DHT22;30282;16.436;99.370;2023-03-01T09:14:23;35.10;80.70
12602;DHT22;30282;16.436;99.370;2023-03-01T09:16:55;35.10;79.50
12602;DHT22;30282;16.436;99.370;2023-03-01T09:19:24;35.20;79.30
12602;DHT22;30282;16.436;99.370;2023-03-01T09:21:53;35.20;82.10
12602;DHT22;30282;16.436;99.370;2023-03-01T09:24:23;35.20;80.40
12602;DHT22;30282;16.436;99.370;2023-03-01T09:26:55;35.10;81.40
12602;DHT22;30282;16.436;99.370;2023-03-01T09:29:24;35.10;79.10
12602;DHT22;30282;16.436;99.370;2023-03-01T09:31:55;35.10;78.40
12602;DHT22;30282;16.436;99.370;2023-03-01T09:34:25;35.00;77.80
12602;DHT22;30282;16.436;99.370;2023-03-01T09:36:54;35.00;78.50
12602;DHT22;30282;16.436;99.370;2023-03-01T09:39:24;35.00;79.20
12602;DHT22;30282;16.436;99.370;2023-03-01T09:41:59;34.90;80.00
12602;DHT22;30282;16.436;99.370;2023-03-01T09:44:34;34.90;81.00
12602;DHT22;30282;16.436;99.370;2023-03-01T09:47:12;34.90;82.70
12602;DHT22;30282;16.436;99.370;2023-03-01T09:49:59;34.70;82.20
12602;DHT22;30282;16.436;99.370;2023-03-01T09:52:36;34.70;83.60
12602;DHT22;30282;16.436;99.370;2023-03-01T09:55:14;34.60;83.30
12602;DHT22;30282;16.436;99.370;2023-03-01T09:57:48;34.60;82.10
12602;DHT22;30282;16.436;99.370;2023-03-01T10:00:37;34.50;81.00
12602;DHT22;30282;16.436;99.370;2023-03-01T10:03:16;34.50;80.50
12602;DHT22;30282;16.436;99.370;2023-03-01T10:05:53;34.50;81.10
12602;DHT22;30282;16.436;99.370;2023-03-01T10:08:36;34.50;84.00
12602;DHT22;30282;16.436;99.370;2023-03-01T10:11:20;34.40;83.70
12602;DHT22;30282;16.436;99.370;2023-03-01T10:13:55;34.30;85.30
12602;DHT22;30282;16.436;99.370;2023-03-01T10:16:33;34.20;84.40
12602;DHT22;30282;16.436;99.370;2023-03-01T10:19:05;34.10;85.70
12602;DHT22;30282;16.436;99.370;2023-03-01T10:21:43;34.00;87.20
12602;DHT22;30282;16.436;99.370;2023-03-01T10:24:15;33.90;86.10
12602;DHT22;30282;16.436;99.370;2023-03-01T10:26:54;33.90;89.40
12602;DHT22;30282;16.436;99.370;2023-03-01T10:29:26;33.90;86.80
12602;DHT22;30282;16.436;99.370;2023-03-01T10:31:59;33.80;87.80
12602;DHT22;30282;16.436;99.370;2023-03-01T10:34:31;33.70;86.70
12602;DHT22;30282;16.436;99.370;2023-03-01T10:37:11;33.70;88.30
12602;DHT22;30282;16.436;99.370;2023-03-01T10:39:56;33.50;87.10
12602;DHT22;30282;16.436;99.370;2023-03-01T10:42:30;33.40;88.60
12602;DHT22;30282;16.436;99.370;2023-03-01T10:45:17;33.30;89.80
12602;DHT22;30282;16.436;99.370;2023-03-01T10:48:04;33.20;90.70
12602;DHT22;30282;16.436;99.370;2023-03-01T10:50:35;33.10;90.90
12602;DHT22;30282;16.436;99.370;2023-03-01T10:53:20;33.00;91.00
12602;DHT22;30282;16.436;99.370;2023-03-01T10:55:57;32.90;90.70
12602;DHT22;30282;16.436;99.370;2023-03-01T10:58:28;32.80;90.30
12602;DHT22;30282;16.436;99.370;2023-03-01T11:00:58;32.70;90.40
12602;DHT22;30282;16.436;99.370;2023-03-01T11:03:30;32.50;89.80
12602;DHT22;30282;16.436;99.370;2023-03-01T11:06:20;32.40;90.40
12602;DHT22;30282;16.436;99.370;2023-03-01T11:08:50;32.40;90.10
12602;DHT22;30282;16.436;99.370;2023-03-01T11:11:31;32.20;90.20
12602;DHT22;30282;16.436;99.370;2023-03-01T11:14:06;32.10;91.00
12602;DHT22;30282;16.436;99.370;2023-03-01T11:16:36;32.00;93.90
12602;DHT22;30282;16.436;99.370;2023-03-01T11:19:20;31.70;94.50
12602;DHT22;30282;16.436;99.370;2023-03-01T11:21:58;31.60;92.70
12602;DHT22;30282;16.436;99.370;2023-03-01T11:24:33;31.40;92.30
12602;DHT22;30282;16.436;99.370;2023-03-01T11:27:04;31.30;90.70
12602;DHT22;30282;16.436;99.370;2023-03-01T11:29:38;31.30;90.70
12602;DHT22;30282;16.436;99.370;2023-03-01T11:32:11;31.20;91.40
12602;DHT22;30282;16.436;99.370;2023-03-01T11:34:45;31.10;90.50
12602;DHT22;30282;16.436;99.370;2023-03-01T11:37:30;31.10;91.00
12602;DHT22;30282;16.436;99.370;2023-03-01T11:40:05;31.00;91.50
12602;DHT22;30282;16.436;99.370;2023-03-01T11:42:59;30.90;91.30
12602;DHT22;30282;16.436;99.370;2023-03-01T11:45:38;30.70;91.50
12602;DHT22;30282;16.436;99.370;2023-03-01T11:48:34;30.70;93.30
12602;DHT22;30282;16.436;99.370;2023-03-01T11:51:12;30.50;95.00
12602;DHT22;30282;16.436;99.370;2023-03-01T11:54:04;30.30;96.70
12602;DHT22;30282;16.436;99.370;2023-03-01T11:56:38;30.20;96.00
12602;DHT22;30282;16.436;99.370;2023-03-01T11:59:22;30.00;96.10
12602;DHT22;30282;16.436;99.370;2023-03-01T12:02:18;29.70;97.20
12602;DHT22;30282;16.436;99.370;2023-03-01T12:08:05;29.10;99.00
12602;DHT22;30282;16.436;99.370;2023-03-01T12:10:44;28.80;99.90
12602;DHT22;30282;16.436;99.370;2023-03-01T12:13:41;28.60;99.90
12602;DHT22;30282;16.436;99.370;2023-03-01T12:16:23;28.60;99.90
12602;DHT22;30282;16.436;99.370;2023-03-01T12:19:14;28.60;99.90
12602;DHT22;30282;16.436;99.370;2023-03-01T12:21:55;28.60;99.90
12602;DHT22;30282;16.436;99.370;2023-03-01T12:24:42;28.60;99.90
12602;DHT22;30282;16.436;99.370;2023-03-01T12:27:39;28.60;99.90
12602;DHT22;30282;16.436;99.370;2023-03-01T12:30:24;28.60;99.90
12602;DHT22;30282;16.436;99.370;2023-03-01T12:33:06;28.60;99.90
12602;DHT22;30282;16.436;99.370;2023-03-01T12:36:03;28.60;99.90
12602;DHT22;30282;16.436;99.370;2023-03-01T12:38:42;28.60;99.90
12602;DHT22;30282;16.436;99.370;2023-03-01T12:44:42;28.40;99.90
12602;DHT22;30282;16.436;99.370;2023-03-01T12:47:28;28.20;99.90
12602;DHT22;30282;16.436;99.370;2023-03-01T12:50:02;28.10;99.90
12602;DHT22;30282;16.436;99.370;2023-03-01T12:52:37;28.00;99.90
12602;DHT22;30282;16.436;99.370;2023-03-01T12:55:19;28.00;99.90
12602;DHT22;30282;16.436;99.370;2023-03-01T12:58:01;28.00;99.90
12602;DHT22;30282;16.436;99.370;2023-03-01T13:00:41;27.90;99.90
12602;DHT22;30282;16.436;99.370;2023-03-01T13:03:22;27.90;99.90
12602;DHT22;30282;16.436;99.370;2023-03-01T13:06:04;27.80;99.90
12602;DHT22;30282;16.436;99.370;2023-03-01T13:08:38;27.60;99.90
12602;DHT22;30282;16.436;99.370;2023-03-01T13:11:15;27.60;99.90
12602;DHT22;30282;16.436;99.370;2023-03-01T13:13:45;27.50;99.90
12602;DHT22;30282;16.436;99.370;2023-03-01T13:16:40;27.50;99.90
12602;DHT22;30282;16.436;99.370;2023-03-01T13:19:15;27.30;99.90
12602;DHT22;30282;16.436;99.370;2023-03-01T13:21:45;27.10;99.90
12602;DHT22;30282;16.436;99.370;2023-03-01T13:24:27;27.00;99.90
12602;DHT22;30282;16.436;99.370;2023-03-01T13:27:22;27.00;99.90
12602;DHT22;30282;16.436;99.370;2023-03-01T13:29:59;26.90;99.90
12602;DHT22;30282;16.436;99.370;2023-03-01T13:32:34;26.90;99.90
12602;DHT22;30282;16.436;99.370;2023-03-01T13:35:42;26.80;99.90
12602;DHT22;30282;16.436;99.370;2023-03-01T13:38:38;26.60;99.90
12602;DHT22;30282;16.436;99.370;2023-03-01T13:41:08;26.40;99.90
12602;DHT22;30282;16.436;99.370;2023-03-01T13:43:38;26.30;99.90
12602;DHT22;30282;16.436;99.370;2023-03-01T13:46:15;26.20;99.90
12602;DHT22;30282;16.436;99.370;2023-03-01T13:48:50;25.80;99.90
12602;DHT22;30282;16.436;99.370;2023-03-01T13:51:25;25.60;99.90
12602;DHT22;30282;16.436;99.370;2023-03-01T13:53:55;25.40;99.90
12602;DHT22;30282;16.436;99.370;2023-03-01T13:56:27;25.40;99.90
12602;DHT22;30282;16.436;99.370;2023-03-01T13:59:01;25.30;99.90
12602;DHT22;30282;16.436;99.370;2023-03-01T14:01:32;25.20;99.90
12602;DHT22;30282;16.436;99.370;2023-03-01T14:04:17;25.20;99.90
12602;DHT22;30282;16.436;99.370;2023-03-01T14:06:47;25.10;99.90
12602;DHT22;30282;16.436;99.370;2023-03-01T14:09:20;25.20;99.90
12602;DHT22;30282;16.436;99.370;2023-03-01T14:12:09;25.20;99.90
12602;DHT22;30282;16.436;99.370;2023-03-01T14:14:51;25.30;99.90
12602;DHT22;30282;16.436;99.370;2023-03-01T14:17:41;25.30;99.90
12602;DHT22;30282;16.436;99.370;2023-03-01T14:20:18;25.40;99.90
12602;DHT22;30282;16.436;99.370;2023-03-01T14:22:51;25.20;99.90
12602;DHT22;30282;16.436;99.370;2023-03-01T14:25:26;25.20;99.90
12602;DHT22;30282;16.436;99.370;2023-03-01T14:28:03;25.20;99.90
12602;DHT22;30282;16.436;99.370;2023-03-01T14:30:36;25.20;99.90
12602;DHT22;30282;16.436;99.370;2023-03-01T14:33:17;25.20;99.90
12602;DHT22;30282;16.436;99.370;2023-03-01T14:35:57;25.20;99.90
12602;DHT22;30282;16.436;99.370;2023-03-01T14:38:36;25.30;99.90
12602;DHT22;30282;16.436;99.370;2023-03-01T14:41:08;25.30;99.90
12602;DHT22;30282;16.436;99.370;2023-03-01T14:43:41;25.30;99.90
12602;DHT22;30282;16.436;99.370;2023-03-01T14:46:20;25.10;99.90
12602;DHT22;30282;16.436;99.370;2023-03-01T14:48:51;25.20;99.90
12602;DHT22;30282;16.436;99.370;2023-03-01T14:51:22;25.10;99.90
12602;DHT22;30282;16.436;99.370;2023-03-01T14:53:51;24.90;99.90
12602;DHT22;30282;16.436;99.370;2023-03-01T14:56:21;24.70;99.90
12602;DHT22;30282;16.436;99.370;2023-03-01T14:58:52;24.70;99.90
12602;DHT22;30282;16.436;99.370;2023-03-01T15:01:22;24.60;99.90
12602;DHT22;30282;16.436;99.370;2023-03-01T15:03:52;24.40;99.90
12602;DHT22;30282;16.436;99.370;2023-03-01T15:06:23;24.20;99.90
12602;DHT22;30282;16.436;99.370;2023-03-01T15:08:54;24.20;99.90
12602;DHT22;30282;16.436;99.370;2023-03-01T15:11:27;24.30;99.90
12602;DHT22;30282;16.436;99.370;2023-03-01T15:13:56;24.30;99.90
12602;DHT22;30282;16.436;99.370;2023-03-01T15:16:29;24.20;99.90
12602;DHT22;30282;16.436;99.370;2023-03-01T15:19:00;23.70;99.90
12602;DHT22;30282;16.436;99.370;2023-03-01T15:21:33;23.30;99.90
12602;DHT22;30282;16.436;99.370;2023-03-01T15:24:06;23.20;99.90
12602;DHT22;30282;16.436;99.370;2023-03-01T15:26:40;23.30;99.90
12602;DHT22;30282;16.436;99.370;2023-03-01T15:29:16;23.40;99.90
12602;DHT22;30282;16.436;99.370;2023-03-01T15:31:58;23.50;99.90
12602;DHT22;30282;16.436;99.370;2023-03-01T15:34:29;23.50;99.90
12602;DHT22;30282;16.436;99.370;2023-03-01T15:37:01;23.30;99.90
12602;DHT22;30282;16.436;99.370;2023-03-01T15:39:38;23.30;99.90
12602;DHT22;30282;16.436;99.370;2023-03-01T15:42:11;23.20;99.90
12602;DHT22;30282;16.436;99.370;2023-03-01T15:44:43;23.10;99.90
12602;DHT22;30282;16.436;99.370;2023-03-01T15:47:28;23.10;99.90
12602;DHT22;30282;16.436;99.370;2023-03-01T15:50:01;23.10;99.90
12602;DHT22;30282;16.436;99.370;2023-03-01T15:52:35;23.20;99.90
12602;DHT22;30282;16.436;99.370;2023-03-01T15:55:14;23.00;99.90
12602;DHT22;30282;16.436;99.370;2023-03-01T15:57:47;23.00;99.90
12602;DHT22;30282;16.436;99.370;2023-03-01T16:00:17;23.00;99.90